createdAt,value
2024-02-08T00:01:54.231Z,99.90
2024-02-08T00:04:20.936Z,99.90
2024-02-08T00:06:47.683Z,99.90
2024-02-08T00:09:14.444Z,99.90
2024-02-08T00:11:41.271Z,99.90
2024-02-08T00:14:08.017Z,99.90
2024-02-08T00:16:38.611Z,99.90
2024-02-08T00:19:05.529Z,99.90
2024-02-08T00:21:33.486Z,99.90
2024-02-08T00:24:01.338Z,99.90
2024-02-08T00:26:28.103Z,99.90
2024-02-08T00:28:54.832Z,99.90
2024-02-08T00:31:21.577Z,99.90
2024-02-08T00:33:49.529Z,99.90
2024-02-08T00:36:16.440Z,99.90
2024-02-08T00:38:46.171Z,99.90
2024-02-08T00:41:13.017Z,99.90
2024-02-08T00:43:40.405Z,99.90
2024-02-08T00:46:07.647Z,99.90
2024-02-08T00:48:34.474Z,99.90
2024-02-08T00:51:01.292Z,99.90
2024-02-08T00:53:27.974Z,99.90
2024-02-08T00:55:54.657Z,99.90
2024-02-08T00:58:22.914Z,99.90
2024-02-08T01:00:49.893Z,99.90
2024-02-08T01:03:16.724Z,99.90
2024-02-08T01:05:44.372Z,99.90
2024-02-08T01:08:11.304Z,99.90
2024-02-08T01:10:38.204Z,99.90
2024-02-08T01:13:05.673Z,99.90
2024-02-08T01:15:32.405Z,99.90
2024-02-08T01:17:59.794Z,99.90
2024-02-08T01:20:29.464Z,99.90
2024-02-08T01:22:56.759Z,99.90
2024-02-08T01:25:23.744Z,99.90
2024-02-08T01:27:50.730Z,99.90
2024-02-08T01:30:17.583Z,99.90
2024-02-08T01:32:44.342Z,99.90
2024-02-08T01:35:22.778Z,99.90
2024-02-08T01:37:49.837Z,99.90
2024-02-08T01:40:19.458Z,99.90
2024-02-08T01:42:49.979Z,99.90
2024-02-08T01:45:31.570Z,99.90
2024-02-08T01:48:04.074Z,99.90
2024-02-08T01:50:38.963Z,99.90
2024-02-08T01:53:09.002Z,99.90
2024-02-08T01:55:36.282Z,99.90
2024-02-08T01:58:10.159Z,99.90
2024-02-08T02:00:38.318Z,99.90
2024-02-08T02:03:06.203Z,99.90
2024-02-08T02:05:33.345Z,99.90
2024-02-08T02:08:00.312Z,99.90
2024-02-08T02:10:31.154Z,99.90
2024-02-08T02:13:01.499Z,99.90
2024-02-08T02:15:33.028Z,99.90
2024-02-08T02:18:05.063Z,99.90
2024-02-08T02:20:31.967Z,99.90
2024-02-08T02:23:00.109Z,99.90
2024-02-08T02:25:30.471Z,99.90
2024-02-08T02:28:01.893Z,99.90
2024-02-08T02:30:29.481Z,99.90
2024-02-08T02:33:01.187Z,99.90
2024-02-08T02:35:29.930Z,99.90
2024-02-08T02:38:03.379Z,99.90
2024-02-08T02:40:31.743Z,99.90
2024-02-08T02:42:59.274Z,99.90
2024-02-08T02:45:30.270Z,99.90
2024-02-08T02:47:59.343Z,99.90
2024-02-08T02:50:26.482Z,99.90
2024-02-08T02:52:53.532Z,99.90
2024-02-08T02:55:21.327Z,99.90
2024-02-08T02:57:48.465Z,99.90
2024-02-08T03:00:34.768Z,99.90
2024-02-08T03:03:10.257Z,99.90
2024-02-08T03:05:41.369Z,99.90
2024-02-08T03:08:08.348Z,99.90
2024-02-08T03:10:39.506Z,99.90
2024-02-08T03:13:08.888Z,99.90
2024-02-08T03:15:38.062Z,99.90
2024-02-08T03:18:05.518Z,99.90
2024-02-08T03:20:32.280Z,99.90
2024-02-08T03:22:59.962Z,99.90
2024-02-08T03:25:27.229Z,99.90
2024-02-08T03:27:54.261Z,99.90
2024-02-08T03:30:24.356Z,99.90
2024-02-08T03:32:52.407Z,99.90
2024-02-08T03:35:20.612Z,99.90
2024-02-08T03:37:50.026Z,99.90
2024-02-08T03:40:22.011Z,99.90
2024-02-08T03:42:50.009Z,99.90
2024-02-08T03:45:24.472Z,99.90
2024-02-08T03:47:51.969Z,99.90
2024-02-08T03:50:25.875Z,99.90
2024-02-08T03:52:52.903Z,99.90
2024-02-08T03:55:27.411Z,99.90
2024-02-08T03:57:57.283Z,99.90
2024-02-08T04:00:29.454Z,99.90
2024-02-08T04:03:03.847Z,99.90
2024-02-08T04:05:49.315Z,99.90
2024-02-08T04:08:24.943Z,99.90
2024-02-08T04:10:52.209Z,99.90
2024-02-08T04:13:40.184Z,99.90
2024-02-08T04:16:25.549Z,99.90
2024-02-08T04:19:11.048Z,99.90
2024-02-08T04:21:56.309Z,99.90
2024-02-08T04:24:41.784Z,99.90
2024-02-08T04:27:27.401Z,99.90
2024-02-08T04:30:12.829Z,99.90
2024-02-08T04:32:58.534Z,99.90
2024-02-08T04:35:43.962Z,99.90
2024-02-08T04:38:29.327Z,99.90
2024-02-08T04:41:14.800Z,99.90
2024-02-08T04:44:00.350Z,99.90
2024-02-08T04:46:45.931Z,99.90
2024-02-08T04:49:33.683Z,99.90
2024-02-08T04:52:19.087Z,99.90
2024-02-08T04:54:45.749Z,99.90
2024-02-08T04:57:12.417Z,99.90
2024-02-08T04:59:43.639Z,99.90
2024-02-08T05:02:10.644Z,99.90
2024-02-08T05:04:37.723Z,99.90
2024-02-08T05:07:05.978Z,99.90
2024-02-08T05:09:33.149Z,99.90
2024-02-08T05:12:07.227Z,99.90
2024-02-08T05:14:36.848Z,99.90
2024-02-08T05:17:04.369Z,99.90
2024-02-08T05:19:31.207Z,99.90
2024-02-08T05:22:00.642Z,99.90
2024-02-08T05:24:29.188Z,99.90
2024-02-08T05:26:56.490Z,99.90
2024-02-08T05:29:23.376Z,99.90
2024-02-08T05:31:51.161Z,99.90
2024-02-08T05:34:19.265Z,99.90
2024-02-08T05:36:47.918Z,99.90
2024-02-08T05:39:15.401Z,99.90
2024-02-08T05:41:45.988Z,99.90
2024-02-08T05:44:13.959Z,99.90
2024-02-08T05:46:40.927Z,99.90
2024-02-08T05:49:16.016Z,99.90
2024-02-08T05:51:57.701Z,99.90
2024-02-08T05:54:32.945Z,99.90
2024-02-08T05:57:05.490Z,99.90
2024-02-08T05:59:33.102Z,99.90
2024-02-08T06:02:01.048Z,99.90
2024-02-08T06:04:36.205Z,99.90
2024-02-08T06:07:07.121Z,99.90
2024-02-08T06:09:46.942Z,99.90
2024-02-08T06:12:21.649Z,99.90
2024-02-08T06:14:48.373Z,99.90
2024-02-08T06:17:25.001Z,99.90
2024-02-08T06:19:52.322Z,99.90
2024-02-08T06:22:24.029Z,99.90
2024-02-08T06:24:51.669Z,99.90
2024-02-08T06:27:24.548Z,99.90
2024-02-08T06:29:54.152Z,99.90
2024-02-08T06:32:29.815Z,99.90
2024-02-08T06:35:09.595Z,99.90
2024-02-08T06:37:45.443Z,99.90
2024-02-08T06:40:23.361Z,99.90
2024-02-08T06:43:10.372Z,99.90
2024-02-08T06:45:52.827Z,99.90
2024-02-08T06:48:50.493Z,99.90
2024-02-08T06:51:36.045Z,99.90
2024-02-08T06:54:21.515Z,99.90
2024-02-08T06:57:07.070Z,99.90
2024-02-08T06:59:55.325Z,99.90
2024-02-08T07:02:40.984Z,99.90
2024-02-08T07:05:26.471Z,99.90
2024-02-08T07:08:12.040Z,99.90
2024-02-08T07:10:57.338Z,99.90
2024-02-08T07:13:42.665Z,99.90
2024-02-08T07:16:28.271Z,99.90
2024-02-08T07:19:13.462Z,99.90
2024-02-08T07:21:59.074Z,99.90
2024-02-08T07:24:44.548Z,99.90
2024-02-08T07:27:30.097Z,99.90
2024-02-08T07:30:15.586Z,99.90
2024-02-08T07:33:00.989Z,99.90
2024-02-08T07:35:46.504Z,99.90
2024-02-08T07:38:15.598Z,99.90
2024-02-08T07:40:44.910Z,99.90
2024-02-08T07:43:15.267Z,99.90
2024-02-08T07:45:47.413Z,99.90
2024-02-08T07:48:15.471Z,99.90
2024-02-08T07:50:48.960Z,99.90
2024-02-08T07:53:35.243Z,99.90
2024-02-08T07:56:24.303Z,99.90
2024-02-08T07:59:04.687Z,99.90
2024-02-08T08:01:45.189Z,99.90
2024-02-08T08:04:13.832Z,99.90
2024-02-08T08:06:50.314Z,99.90
2024-02-08T08:09:22.063Z,99.90
2024-02-08T08:11:49.541Z,99.90
2024-02-08T08:14:39.159Z,99.90
2024-02-08T08:17:09.808Z,99.90
2024-02-08T08:19:40.474Z,99.90
2024-02-08T08:22:21.257Z,99.90
2024-02-08T08:25:15.307Z,99.90
2024-02-08T08:28:11.226Z,99.90
2024-02-08T08:30:54.892Z,99.90
2024-02-08T08:33:42.033Z,99.90
2024-02-08T08:36:28.957Z,99.90
2024-02-08T08:39:19.688Z,99.90
2024-02-08T08:41:48.468Z,99.90
2024-02-08T08:44:16.597Z,99.90
2024-02-08T08:46:43.569Z,99.90
2024-02-08T08:49:15.604Z,99.90
2024-02-08T08:51:44.470Z,99.90
2024-02-08T08:54:26.777Z,99.90
2024-02-08T08:56:58.016Z,99.90
2024-02-08T08:59:27.687Z,99.90
2024-02-08T09:01:55.214Z,99.90
2024-02-08T09:04:33.314Z,99.90
2024-02-08T09:07:11.633Z,99.90
2024-02-08T09:09:55.659Z,99.90
2024-02-08T09:12:40.468Z,99.90
2024-02-08T09:15:27.892Z,99.90
2024-02-08T09:18:10.459Z,99.90
2024-02-08T09:20:38.981Z,99.90
2024-02-08T09:23:14.785Z,99.90
2024-02-08T09:25:45.667Z,99.90
2024-02-08T09:28:27.476Z,99.90
2024-02-08T09:30:57.519Z,99.90
2024-02-08T09:33:31.491Z,99.90
2024-02-08T09:36:01.275Z,99.90
2024-02-08T09:38:29.572Z,99.90
2024-02-08T09:41:00.694Z,99.90
2024-02-08T09:43:30.594Z,99.90
2024-02-08T09:46:32.999Z,99.90
2024-02-08T09:49:19.158Z,99.90
2024-02-08T09:51:55.282Z,99.90
2024-02-08T09:54:32.005Z,99.90
2024-02-08T09:57:24.711Z,99.90
2024-02-08T10:00:08.345Z,99.90
2024-02-08T10:02:38.156Z,99.90
2024-02-08T10:05:30.210Z,99.90
2024-02-08T10:08:28.253Z,99.90
2024-02-08T10:11:12.270Z,99.90
2024-02-08T10:13:57.091Z,99.90
2024-02-08T10:16:43.107Z,99.90
2024-02-08T10:19:28.956Z,99.90
2024-02-08T10:22:01.920Z,99.90
2024-02-08T10:24:48.092Z,99.90
2024-02-08T10:27:23.569Z,99.90
2024-02-08T10:30:06.347Z,99.90
2024-02-08T10:32:38.287Z,99.90
2024-02-08T10:35:16.225Z,99.90
2024-02-08T10:37:48.704Z,99.90
2024-02-08T10:40:33.543Z,99.90
2024-02-08T10:43:03.968Z,99.90
2024-02-08T10:45:33.489Z,99.90
2024-02-08T10:48:04.541Z,99.90
2024-02-08T10:50:35.933Z,99.90
2024-02-08T10:53:05.006Z,99.90
2024-02-08T10:55:38.528Z,99.90
2024-02-08T10:58:10.857Z,99.90
2024-02-08T11:00:41.814Z,99.90
2024-02-08T11:03:15.732Z,99.90
2024-02-08T11:05:50.590Z,99.90
2024-02-08T11:08:26.166Z,99.90
2024-02-08T11:11:00.237Z,99.90
2024-02-08T11:13:38.918Z,99.90
2024-02-08T11:16:22.902Z,99.90
2024-02-08T11:18:53.931Z,99.90
2024-02-08T11:21:29.976Z,99.90
2024-02-08T11:23:58.563Z,99.90
2024-02-08T11:26:28.867Z,99.90
2024-02-08T11:29:20.166Z,99.90
2024-02-08T11:31:50.124Z,99.90
2024-02-08T11:34:25.291Z,99.90
2024-02-08T11:37:00.445Z,99.90
2024-02-08T11:39:31.434Z,99.90
2024-02-08T11:42:06.432Z,99.90
2024-02-08T11:44:44.731Z,99.90
2024-02-08T11:47:24.256Z,99.90
2024-02-08T11:50:04.910Z,99.90
2024-02-08T11:52:33.343Z,99.90
2024-02-08T11:55:13.655Z,99.90
2024-02-08T11:57:42.548Z,99.90
2024-02-08T12:00:17.771Z,99.90
2024-02-08T12:02:58.532Z,99.90
2024-02-08T12:05:27.665Z,99.90
2024-02-08T12:08:09.681Z,99.90
2024-02-08T12:10:38.955Z,99.90
2024-02-08T12:13:06.411Z,99.90
2024-02-08T12:15:36.164Z,99.90
2024-02-08T12:18:06.838Z,99.90
2024-02-08T12:20:37.738Z,99.90
2024-02-08T12:23:05.587Z,99.90
2024-02-08T12:25:33.116Z,99.90
2024-02-08T12:28:05.932Z,99.90
2024-02-08T12:30:37.682Z,99.90
2024-02-08T12:33:10.243Z,99.90
2024-02-08T12:35:41.628Z,99.90
2024-02-08T12:38:10.225Z,99.90
2024-02-08T12:40:37.309Z,99.90
2024-02-08T12:43:09.445Z,99.90
2024-02-08T12:45:37.051Z,99.90
2024-02-08T12:48:09.584Z,99.90
2024-02-08T12:50:39.632Z,99.90
2024-02-08T12:53:14.021Z,99.90
2024-02-08T12:55:41.756Z,99.90
2024-02-08T12:58:14.582Z,99.90
2024-02-08T13:00:41.489Z,99.90
2024-02-08T13:03:09.889Z,99.90
2024-02-08T13:05:41.122Z,99.90
2024-02-08T13:08:09.941Z,99.90
2024-02-08T13:10:39.575Z,99.90
2024-02-08T13:13:11.741Z,99.90
2024-02-08T13:15:42.977Z,99.90
2024-02-08T13:18:11.902Z,99.90
2024-02-08T13:20:41.843Z,99.90
2024-02-08T13:23:10.894Z,99.90
2024-02-08T13:25:38.002Z,99.70
2024-02-08T13:28:07.146Z,99.80
2024-02-08T13:30:37.745Z,99.70
2024-02-08T13:33:06.433Z,99.00
2024-02-08T13:35:40.954Z,98.90
2024-02-08T13:38:12.166Z,98.80
2024-02-08T13:40:44.203Z,98.40
2024-02-08T13:43:12.498Z,98.60
2024-02-08T13:45:41.059Z,98.00
2024-02-08T13:48:17.620Z,98.10
2024-02-08T13:50:45.508Z,98.00
2024-02-08T13:53:16.224Z,97.50
2024-02-08T13:55:54.246Z,97.50
2024-02-08T13:58:25.074Z,98.00
2024-02-08T14:00:56.137Z,98.00
2024-02-08T14:03:25.094Z,97.80
2024-02-08T14:05:53.769Z,97.50
2024-02-08T14:08:25.331Z,97.40
2024-02-08T14:10:52.923Z,97.40
2024-02-08T14:13:30.856Z,97.80
2024-02-08T14:16:01.811Z,97.80
2024-02-08T14:18:33.468Z,97.80
2024-02-08T14:21:03.268Z,97.90
2024-02-08T14:23:44.463Z,97.90
2024-02-08T14:26:31.198Z,98.10
2024-02-08T14:28:58.118Z,97.90
2024-02-08T14:31:24.901Z,97.80
2024-02-08T14:33:52.393Z,97.40
2024-02-08T14:36:19.941Z,97.40
2024-02-08T14:38:48.030Z,97.50
2024-02-08T14:41:27.818Z,97.70
2024-02-08T14:43:56.300Z,97.40
2024-02-08T14:46:27.295Z,97.70
2024-02-08T14:48:55.111Z,98.00
2024-02-08T14:51:25.014Z,97.90
2024-02-08T14:53:55.478Z,97.80
2024-02-08T14:56:22.888Z,97.80
2024-02-08T14:58:57.798Z,97.80
2024-02-08T15:01:41.356Z,97.60
2024-02-08T15:04:17.951Z,97.50
2024-02-08T15:07:05.539Z,97.50
2024-02-08T15:09:35.651Z,97.30
2024-02-08T15:12:06.099Z,97.30
2024-02-08T15:14:38.758Z,97.20
2024-02-08T15:17:11.644Z,97.10
2024-02-08T15:19:49.516Z,97.20
2024-02-08T15:22:40.695Z,97.10
2024-02-08T15:25:08.616Z,96.90
2024-02-08T15:27:49.513Z,96.90
2024-02-08T15:30:20.319Z,96.80
2024-02-08T15:32:48.165Z,96.70
2024-02-08T15:35:25.685Z,96.60
2024-02-08T15:38:11.292Z,96.60
2024-02-08T15:40:46.230Z,96.60
2024-02-08T15:43:17.108Z,96.60
2024-02-08T15:45:54.233Z,96.60
2024-02-08T15:48:33.514Z,96.50
2024-02-08T15:51:10.514Z,96.30
2024-02-08T15:53:50.693Z,96.40
2024-02-08T15:56:21.259Z,96.30
2024-02-08T15:59:02.908Z,96.50
2024-02-08T16:01:48.687Z,96.70
2024-02-08T16:04:40.597Z,96.60
2024-02-08T16:07:13.929Z,96.50
2024-02-08T16:09:41.353Z,96.50
2024-02-08T16:12:15.539Z,96.70
2024-02-08T16:15:00.920Z,96.70
2024-02-08T16:17:38.959Z,96.70
2024-02-08T16:20:16.934Z,96.60
2024-02-08T16:22:57.990Z,96.50
2024-02-08T16:25:44.408Z,96.50
2024-02-08T16:28:20.054Z,96.30
2024-02-08T16:31:00.262Z,96.40
2024-02-08T16:33:48.377Z,96.20
2024-02-08T16:36:32.932Z,96.40
2024-02-08T16:39:08.392Z,96.20
2024-02-08T16:41:48.624Z,96.20
2024-02-08T16:44:16.258Z,96.20
2024-02-08T16:46:53.456Z,96.10
2024-02-08T16:49:20.525Z,96.10
2024-02-08T16:51:50.108Z,96.20
2024-02-08T16:54:31.066Z,96.10
2024-02-08T16:56:58.392Z,96.20
2024-02-08T16:59:36.718Z,96.20
2024-02-08T17:02:13.270Z,96.10
2024-02-08T17:05:03.853Z,96.00
2024-02-08T17:07:46.182Z,95.90
2024-02-08T17:10:37.566Z,95.90
2024-02-08T17:13:17.838Z,95.90
2024-02-08T17:16:11.028Z,95.90
2024-02-08T17:18:58.478Z,96.00
2024-02-08T17:21:44.101Z,95.80
2024-02-08T17:24:23.004Z,95.90
2024-02-08T17:27:03.640Z,95.90
2024-02-08T17:29:37.388Z,95.70
2024-02-08T17:32:14.100Z,95.80
2024-02-08T17:34:41.292Z,95.80
2024-02-08T17:37:08.227Z,96.00
2024-02-08T17:39:41.558Z,95.80
2024-02-08T17:42:09.872Z,95.90
2024-02-08T17:44:41.156Z,95.90
2024-02-08T17:47:09.610Z,95.80
2024-02-08T17:49:37.676Z,95.70
2024-02-08T17:52:06.896Z,95.90
2024-02-08T17:54:46.483Z,95.90
2024-02-08T17:57:24.040Z,95.90
2024-02-08T17:59:59.133Z,95.70
2024-02-08T18:02:26.909Z,95.60
2024-02-08T18:04:54.633Z,95.70
2024-02-08T18:07:21.983Z,95.70
2024-02-08T18:09:55.286Z,95.60
2024-02-08T18:12:24.149Z,95.60
2024-02-08T18:14:52.360Z,95.80
2024-02-08T18:17:25.715Z,95.80
2024-02-08T18:19:53.269Z,95.80
2024-02-08T18:22:31.340Z,95.70
2024-02-08T18:25:02.016Z,95.70
2024-02-08T18:27:33.980Z,95.60
2024-02-08T18:30:05.464Z,95.60
2024-02-08T18:32:35.885Z,95.60
2024-02-08T18:35:03.815Z,95.50
2024-02-08T18:37:35.677Z,95.40
2024-02-08T18:40:08.368Z,95.40
2024-02-08T18:42:39.518Z,95.30
2024-02-08T18:45:17.546Z,95.30
2024-02-08T18:47:45.146Z,95.30
2024-02-08T18:50:13.870Z,95.50
2024-02-08T18:52:43.133Z,95.70
2024-02-08T18:55:17.743Z,95.50
2024-02-08T18:57:45.802Z,95.70
2024-02-08T19:00:23.914Z,95.60
2024-02-08T19:02:50.975Z,95.70
2024-02-08T19:05:17.975Z,95.80
2024-02-08T19:07:47.622Z,95.90
2024-02-08T19:10:14.822Z,96.00
2024-02-08T19:12:42.453Z,96.00
2024-02-08T19:15:12.660Z,96.10
2024-02-08T19:17:45.476Z,96.00
2024-02-08T19:20:19.881Z,96.10
2024-02-08T19:22:47.675Z,96.10
2024-02-08T19:25:15.388Z,96.10
2024-02-08T19:27:43.189Z,96.20
2024-02-08T19:30:14.077Z,96.20
2024-02-08T19:32:41.099Z,96.30
2024-02-08T19:35:11.409Z,96.20
2024-02-08T19:37:38.526Z,96.20
2024-02-08T19:40:09.945Z,96.40
2024-02-08T19:42:36.769Z,96.30
2024-02-08T19:45:13.106Z,96.90
2024-02-08T19:47:40.028Z,96.70
2024-02-08T19:50:10.785Z,96.70
2024-02-08T19:52:45.771Z,96.60
2024-02-08T19:55:21.862Z,96.60
2024-02-08T19:57:50.248Z,96.40
2024-02-08T20:00:23.033Z,96.10
2024-02-08T20:02:53.584Z,95.80
2024-02-08T20:05:23.844Z,95.90
2024-02-08T20:07:51.974Z,95.70
2024-02-08T20:10:20.711Z,95.70
2024-02-08T20:12:49.860Z,95.70
2024-02-08T20:15:18.177Z,95.60
2024-02-08T20:17:51.032Z,95.30
2024-02-08T20:20:23.165Z,95.30
2024-02-08T20:22:53.188Z,95.20
2024-02-08T20:25:27.187Z,95.40
2024-02-08T20:28:01.003Z,95.50
2024-02-08T20:30:29.474Z,95.60
2024-02-08T20:33:00.639Z,95.60
2024-02-08T20:35:30.956Z,95.60
2024-02-08T20:37:59.815Z,95.40
2024-02-08T20:40:27.147Z,95.50
2024-02-08T20:43:00.018Z,95.60
2024-02-08T20:45:28.332Z,95.70
2024-02-08T20:47:55.529Z,95.90
2024-02-08T20:50:22.758Z,96.00
2024-02-08T20:52:50.941Z,96.00
2024-02-08T20:55:36.269Z,95.90
2024-02-08T20:58:05.787Z,95.90
2024-02-08T21:00:32.969Z,95.90
2024-02-08T21:03:03.204Z,96.00
2024-02-08T21:05:30.381Z,96.00
2024-02-08T21:07:58.753Z,95.90
2024-02-08T21:10:29.674Z,95.70
2024-02-08T21:13:00.978Z,95.90
2024-02-08T21:15:29.349Z,95.80
2024-02-08T21:17:56.764Z,95.80
2024-02-08T21:20:23.889Z,95.70
2024-02-08T21:22:50.898Z,95.50
2024-02-08T21:25:19.949Z,95.40
2024-02-08T21:27:53.379Z,95.40
2024-02-08T21:30:21.779Z,95.20
2024-02-08T21:32:49.922Z,95.10
2024-02-08T21:35:19.520Z,95.30
2024-02-08T21:37:46.965Z,95.50
2024-02-08T21:40:14.427Z,95.60
2024-02-08T21:42:41.282Z,95.70
2024-02-08T21:45:13.542Z,95.90
2024-02-08T21:47:40.826Z,95.90
2024-02-08T21:50:08.715Z,96.30
2024-02-08T21:52:39.370Z,96.30
2024-02-08T21:55:08.239Z,96.20
2024-02-08T21:57:35.640Z,96.20
2024-02-08T22:00:12.429Z,96.40
2024-02-08T22:02:41.022Z,96.40
2024-02-08T22:05:11.921Z,96.50
2024-02-08T22:07:39.904Z,96.70
2024-02-08T22:10:14.539Z,96.90
2024-02-08T22:12:46.937Z,97.00
2024-02-08T22:15:21.003Z,96.70
2024-02-08T22:17:54.508Z,96.90
2024-02-08T22:20:24.712Z,97.30
2024-02-08T22:23:00.487Z,97.60
2024-02-08T22:25:27.412Z,98.20
2024-02-08T22:27:54.324Z,98.30
2024-02-08T22:30:21.051Z,98.10
2024-02-08T22:32:48.510Z,97.70
2024-02-08T22:35:16.965Z,97.80
2024-02-08T22:37:44.900Z,98.00
2024-02-08T22:40:11.915Z,98.10
2024-02-08T22:42:39.097Z,98.60
2024-02-08T22:45:13.782Z,99.00
2024-02-08T22:47:43.529Z,99.20
2024-02-08T22:50:15.765Z,99.30
2024-02-08T22:52:45.323Z,99.60
2024-02-08T22:55:15.253Z,99.90
2024-02-08T22:57:42.489Z,99.80
2024-02-08T23:00:22.042Z,99.80
2024-02-08T23:02:56.351Z,99.90
2024-02-08T23:05:28.444Z,99.90
2024-02-08T23:07:58.363Z,99.90
2024-02-08T23:10:25.156Z,99.90
2024-02-08T23:12:53.727Z,99.90
2024-02-08T23:15:21.086Z,99.90
2024-02-08T23:17:55.837Z,99.90
2024-02-08T23:20:23.189Z,99.90
2024-02-08T23:22:51.090Z,99.90
2024-02-08T23:25:18.172Z,99.90
2024-02-08T23:27:48.773Z,99.90
2024-02-08T23:30:16.399Z,99.90
2024-02-08T23:32:52.203Z,99.90
2024-02-08T23:35:23.914Z,99.90
2024-02-08T23:37:52.743Z,99.90
2024-02-08T23:40:19.815Z,99.90
2024-02-08T23:42:46.526Z,99.90
2024-02-08T23:45:19.040Z,99.90
2024-02-08T23:47:47.126Z,99.90
2024-02-08T23:50:14.323Z,99.90
2024-02-08T23:52:41.421Z,99.90
2024-02-08T23:55:08.945Z,99.90
2024-02-08T23:57:38.785Z,99.90
